Marietta, Mississippi
Current Conditions -  °F | °C
As of 1:53 PM on Thursday 30 Oct 2014 (Local Time) from KTUP Reporting Station
Clear Clear  
Wind Chill: 66°   Ceiling: Unl
Heat Index: 66°   Visibility: 10mi
Dew Point: 37°   Wind: 3mph
Humidity: 34%   Direction: NA
Pressure: 30.09"   Gusts: NA
Location:  34.5°N, 88.47°W
Report Text: KTUP 301853Z VRB03KT 10SM CLR 19/03 A3009 RMK AO2 SLP186 T01890028
Loading
Personal Weather Stations






























Interactive Weather Map
Tropical Storm Tracking
New forecast layout! Learn more

10-Day Weather Forecast

Advertisements
Track Severe Weather on mobile